createdAt,value
2022-10-17T00:01:54.169Z,0.00
2022-10-17T00:06:54.021Z,0.00
2022-10-17T00:11:53.956Z,0.00
2022-10-17T00:16:53.889Z,0.00
2022-10-17T00:21:53.831Z,0.00
2022-10-17T00:26:53.736Z,0.00
2022-10-17T00:36:53.613Z,0.00
2022-10-17T00:41:53.563Z,0.00
2022-10-17T00:46:53.472Z,0.00
2022-10-17T00:51:53.400Z,0.00
2022-10-17T00:56:53.328Z,0.00
2022-10-17T01:01:53.246Z,0.00
2022-10-17T01:06:53.177Z,0.00
2022-10-17T01:11:53.139Z,0.00
2022-10-17T01:16:53.060Z,0.00
2022-10-17T01:21:53.035Z,0.00
2022-10-17T01:26:52.928Z,0.00
2022-10-17T01:31:52.925Z,0.00
2022-10-17T01:36:52.801Z,0.00
2022-10-17T01:41:52.735Z,0.00
2022-10-17T01:46:52.706Z,0.00
2022-10-17T01:51:52.586Z,0.00
2022-10-17T01:56:52.556Z,0.00
2022-10-17T02:01:52.540Z,0.00
2022-10-17T02:06:52.406Z,0.00
2022-10-17T02:11:52.344Z,0.00
2022-10-17T02:16:52.275Z,0.00
2022-10-17T02:21:52.224Z,0.00
2022-10-17T02:26:52.153Z,0.00
2022-10-17T02:31:52.084Z,0.00
2022-10-17T02:36:52.048Z,0.00
2022-10-17T02:41:51.936Z,0.00
2022-10-17T02:46:51.913Z,0.00
2022-10-17T02:51:51.818Z,0.00
2022-10-17T02:56:51.756Z,0.00
2022-10-17T03:01:51.685Z,0.00
2022-10-17T03:06:51.627Z,0.00
2022-10-17T03:11:51.554Z,0.00
2022-10-17T03:16:51.510Z,0.00
2022-10-17T03:21:51.448Z,0.00
2022-10-17T03:26:51.416Z,0.00
2022-10-17T03:31:51.300Z,0.00
2022-10-17T03:36:51.248Z,0.00
2022-10-17T03:41:51.155Z,0.00
2022-10-17T03:46:51.112Z,0.00
2022-10-17T03:51:51.030Z,0.00
2022-10-17T03:56:50.996Z,0.00
2022-10-17T04:01:50.988Z,0.00
2022-10-17T04:06:50.864Z,0.00
2022-10-17T04:11:50.771Z,0.00
2022-10-17T04:16:50.681Z,0.00
2022-10-17T04:21:50.601Z,0.00
2022-10-17T04:26:50.558Z,0.00
2022-10-17T04:31:50.471Z,0.00
2022-10-17T04:36:50.391Z,0.00
2022-10-17T04:41:50.336Z,0.00
2022-10-17T04:46:50.269Z,0.00
2022-10-17T04:51:50.240Z,4.00
2022-10-17T04:56:50.181Z,0.00
2022-10-17T05:01:50.082Z,8.00
2022-10-17T05:06:50.013Z,16.00
2022-10-17T05:11:49.953Z,44.00
2022-10-17T05:16:49.873Z,96.00
2022-10-17T05:21:49.853Z,176.00
2022-10-17T05:26:49.739Z,284.00
2022-10-17T05:31:49.684Z,460.00
2022-10-17T05:36:49.604Z,704.00
2022-10-17T05:41:49.551Z,1104.00
2022-10-17T05:46:49.463Z,1584.00
2022-10-17T05:51:49.402Z,2092.00
2022-10-17T05:56:49.400Z,2708.00
2022-10-17T06:01:49.292Z,3380.00
2022-10-17T06:06:49.205Z,4020.00
2022-10-17T06:11:49.156Z,5080.00
2022-10-17T06:16:49.083Z,9116.00
2022-10-17T06:21:48.993Z,18048.00
2022-10-17T06:26:48.974Z,21376.00
2022-10-17T06:31:48.865Z,29728.00
2022-10-17T06:36:48.830Z,29024.00
2022-10-17T06:41:48.773Z,33088.00
2022-10-17T06:46:48.777Z,28000.00
2022-10-17T06:51:48.590Z,41536.00
2022-10-17T06:56:48.526Z,39296.00
2022-10-17T07:01:48.458Z,48416.00
2022-10-17T07:06:48.464Z,48224.00
2022-10-17T07:11:48.338Z,49152.00
2022-10-17T07:16:48.273Z,56064.00
2022-10-17T07:21:48.202Z,56480.00
2022-10-17T07:26:48.162Z,55392.00
2022-10-17T07:31:48.084Z,56672.00
2022-10-17T07:36:48.018Z,54816.00
2022-10-17T07:41:47.946Z,58496.00
2022-10-17T07:46:47.897Z,56704.00
2022-10-17T07:51:47.835Z,59968.00
2022-10-17T07:56:47.760Z,57856.00
2022-10-17T08:01:47.706Z,56768.00
2022-10-17T08:06:48.972Z,55360.00
2022-10-17T08:11:48.301Z,27136.00
2022-10-17T08:16:47.501Z,14804.00
2022-10-17T08:21:47.451Z,14004.00
2022-10-17T08:26:49.586Z,13288.00
2022-10-17T08:31:48.319Z,12732.00
2022-10-17T08:36:47.264Z,11868.00
2022-10-17T08:41:47.186Z,11848.00
2022-10-17T08:46:47.102Z,11244.00
2022-10-17T08:51:47.050Z,11060.00
2022-10-17T08:56:49.244Z,11012.00
2022-10-17T09:01:46.937Z,10664.00
2022-10-17T09:06:46.840Z,10768.00
2022-10-17T09:11:46.772Z,10916.00
2022-10-17T09:16:46.732Z,10480.00
2022-10-17T09:21:46.648Z,10292.00
2022-10-17T09:26:46.569Z,9620.00
2022-10-17T09:36:46.434Z,8520.00
2022-10-17T09:41:47.433Z,8464.00
2022-10-17T09:46:46.311Z,8016.00
2022-10-17T09:51:46.245Z,7420.00
2022-10-17T09:56:46.184Z,7172.00
2022-10-17T10:01:46.085Z,6852.00
2022-10-17T10:06:46.026Z,6664.00
2022-10-17T10:11:45.954Z,6324.00
2022-10-17T10:16:45.877Z,6208.00
2022-10-17T10:21:47.119Z,6024.00
2022-10-17T10:26:45.761Z,5868.00
2022-10-17T10:31:45.695Z,5716.00
2022-10-17T10:36:45.631Z,5568.00
2022-10-17T10:41:45.560Z,5488.00
2022-10-17T10:46:45.502Z,5472.00
2022-10-17T10:51:45.464Z,5320.00
2022-10-17T10:56:45.851Z,5300.00
2022-10-17T11:01:45.302Z,5216.00
2022-10-17T11:06:45.265Z,5140.00
2022-10-17T11:11:45.156Z,5124.00
2022-10-17T11:16:45.141Z,5040.00
2022-10-17T11:21:45.118Z,5068.00
2022-10-17T11:26:44.969Z,5044.00
2022-10-17T11:31:44.907Z,4956.00
2022-10-17T11:36:44.834Z,4992.00
2022-10-17T11:41:44.774Z,4980.00
2022-10-17T11:46:44.767Z,4952.00
2022-10-17T11:52:01.607Z,4904.00
2022-10-17T11:56:45.578Z,4876.00
2022-10-17T12:01:44.568Z,4844.00
2022-10-17T12:06:44.439Z,4856.00
2022-10-17T12:11:44.382Z,4836.00
2022-10-17T12:16:44.303Z,4940.00
2022-10-17T12:21:44.234Z,5132.00
2022-10-17T12:26:44.162Z,5344.00
2022-10-17T12:31:44.097Z,5716.00
2022-10-17T12:36:45.015Z,5936.00
2022-10-17T12:41:44.056Z,6292.00
2022-10-17T12:46:43.955Z,6412.00
2022-10-17T12:51:44.677Z,6368.00
2022-10-17T12:56:43.807Z,6388.00
2022-10-17T13:01:43.737Z,6232.00
2022-10-17T13:06:43.940Z,6008.00
2022-10-17T13:11:43.605Z,5760.00
2022-10-17T13:16:55.042Z,5520.00
2022-10-17T13:21:43.468Z,5324.00
2022-10-17T13:26:43.373Z,5156.00
2022-10-17T13:31:43.302Z,5004.00
2022-10-17T13:36:47.949Z,4656.00
2022-10-17T13:41:44.179Z,4488.00
2022-10-17T13:46:43.124Z,4216.00
2022-10-17T13:51:43.074Z,4028.00
2022-10-17T13:56:43.016Z,3880.00
2022-10-17T14:01:42.919Z,3792.00
2022-10-17T14:06:45.100Z,3520.00
2022-10-17T14:11:43.814Z,3412.00
2022-10-17T14:16:42.701Z,3232.00
2022-10-17T14:21:44.685Z,3120.00
2022-10-17T14:26:42.574Z,3032.00
2022-10-17T14:31:42.513Z,2980.00
2022-10-17T14:36:42.443Z,2936.00
2022-10-17T14:41:43.796Z,2896.00
2022-10-17T14:46:42.330Z,2892.00
2022-10-17T14:51:56.530Z,2860.00
2022-10-17T14:56:43.315Z,2824.00
2022-10-17T15:01:42.104Z,2588.00
2022-10-17T15:06:42.037Z,2416.00
2022-10-17T15:11:41.974Z,2308.00
2022-10-17T15:16:41.910Z,2232.00
2022-10-17T15:21:44.807Z,2020.00
2022-10-17T15:26:42.915Z,1812.00
2022-10-17T15:31:41.721Z,1712.00
2022-10-17T15:36:41.630Z,1472.00
2022-10-17T15:41:41.617Z,1168.00
2022-10-17T15:46:41.541Z,944.00
2022-10-17T15:51:41.456Z,676.00
2022-10-17T15:56:41.442Z,464.00
2022-10-17T16:01:41.302Z,308.00
2022-10-17T16:06:41.273Z,200.00
2022-10-17T16:11:41.219Z,132.00
2022-10-17T16:16:41.145Z,60.00
2022-10-17T16:21:41.063Z,28.00
2022-10-17T16:26:41.036Z,12.00
2022-10-17T16:31:41.074Z,4.00
2022-10-17T16:36:41.074Z,4.00
2022-10-17T16:41:40.857Z,0.00
2022-10-17T16:46:40.846Z,0.00
2022-10-17T16:51:40.679Z,0.00
2022-10-17T16:56:42.491Z,0.00
2022-10-17T17:01:40.574Z,0.00
2022-10-17T17:06:40.506Z,0.00
2022-10-17T17:11:40.540Z,0.00
2022-10-17T17:16:40.741Z,0.00
2022-10-17T17:21:40.233Z,0.00
2022-10-17T17:26:50.165Z,0.00
2022-10-17T17:32:02.146Z,0.00
2022-10-17T17:37:04.308Z,0.00
2022-10-17T17:41:40.020Z,0.00
2022-10-17T17:46:39.943Z,0.00
2022-10-17T17:51:39.823Z,0.00
2022-10-17T17:56:39.826Z,0.00
2022-10-17T18:01:39.845Z,0.00
2022-10-17T18:06:39.628Z,0.00
2022-10-17T18:11:39.628Z,0.00
2022-10-17T18:16:39.818Z,0.00
2022-10-17T18:21:39.428Z,0.00
2022-10-17T18:26:39.812Z,0.00
2022-10-17T18:31:39.320Z,0.00
2022-10-17T18:36:39.259Z,0.00
2022-10-17T18:41:39.168Z,0.00
2022-10-17T18:46:39.152Z,0.00
2022-10-17T18:51:39.073Z,0.00
2022-10-17T18:56:38.996Z,0.00
2022-10-17T19:01:38.897Z,0.00
2022-10-17T19:06:39.100Z,0.00
2022-10-17T19:11:38.760Z,0.00
2022-10-17T19:16:39.771Z,0.00
2022-10-17T19:21:40.014Z,0.00
2022-10-17T19:26:38.588Z,0.00
2022-10-17T19:31:38.583Z,0.00
2022-10-17T19:36:38.547Z,0.00
2022-10-17T19:41:38.344Z,0.00
2022-10-17T19:46:38.377Z,0.00
2022-10-17T19:51:38.301Z,0.00
2022-10-17T19:56:38.376Z,0.00
2022-10-17T20:01:38.201Z,0.00
2022-10-17T20:06:38.336Z,0.00
2022-10-17T20:11:38.640Z,0.00
2022-10-17T20:16:37.889Z,0.00
2022-10-17T20:21:37.809Z,0.00
2022-10-17T20:26:39.770Z,0.00
2022-10-17T20:31:37.675Z,0.00
2022-10-17T20:36:37.858Z,0.00
2022-10-17T20:41:37.568Z,0.00
2022-10-17T20:46:41.572Z,0.00
2022-10-17T20:51:38.443Z,0.00
2022-10-17T20:56:37.320Z,0.00
2022-10-17T21:01:37.307Z,0.00
2022-10-17T21:06:37.221Z,0.00
2022-10-17T21:11:37.146Z,0.00
2022-10-17T21:16:37.142Z,0.00
2022-10-17T21:21:37.046Z,0.00
2022-10-17T21:26:36.960Z,0.00
2022-10-17T21:31:36.909Z,0.00
2022-10-17T21:36:36.829Z,0.00
2022-10-17T21:41:36.734Z,0.00
2022-10-17T21:46:36.681Z,0.00
2022-10-17T21:51:36.619Z,0.00
2022-10-17T21:56:36.576Z,0.00
2022-10-17T22:01:36.522Z,0.00
2022-10-17T22:06:40.650Z,0.00
2022-10-17T22:11:36.358Z,0.00
2022-10-17T22:16:36.249Z,0.00
2022-10-17T22:21:36.253Z,0.00
2022-10-17T22:26:36.495Z,0.00
2022-10-17T22:31:36.057Z,0.00
2022-10-17T22:36:36.029Z,0.00
2022-10-17T22:41:35.989Z,0.00
2022-10-17T22:46:36.102Z,0.00
2022-10-17T22:51:35.815Z,0.00
2022-10-17T22:56:35.752Z,0.00
2022-10-17T23:01:35.769Z,0.00
2022-10-17T23:06:35.620Z,0.00
2022-10-17T23:11:35.528Z,0.00
2022-10-17T23:16:35.450Z,0.00
2022-10-17T23:21:35.456Z,0.00
2022-10-17T23:26:35.404Z,0.00
2022-10-17T23:31:35.294Z,0.00
2022-10-17T23:36:35.220Z,0.00
2022-10-17T23:41:35.132Z,0.00
2022-10-17T23:46:35.246Z,0.00
2022-10-17T23:51:35.009Z,0.00
2022-10-17T23:56:34.938Z,0.00
